Time;durP1;ratioP1;P1;durP2;ratioP2;P2;SDS_P1;SDS_P2;PMS_P1;PMS_P2;Temp;Humidity;BMP_temperature;BMP_pressure;BME280_temperature;BME280_humidity;BME280_pressure;Samples;Min_cycle;Max_cycle;Signal;HPM_P1;HPM_P2
2022/03/18 00:00:54;;;;;;;8.48;4.50;;;1.80;99.90;;;;;;5059038;28;20088;-68
2022/03/18 00:03:20;;;;;;;14.57;4.53;;;1.70;99.90;;;;;;5064535;28;20141;-68
2022/03/18 00:05:45;;;;;;;9.70;4.30;;;1.70;99.90;;;;;;5053896;28;20460;-69
2022/03/18 00:08:11;;;;;;;10.50;4.28;;;1.70;99.90;;;;;;5050424;28;20397;-69
2022/03/18 00:10:37;;;;;;;12.65;3.63;;;1.70;99.90;;;;;;5047962;28;20401;-69
2022/03/18 00:13:03;;;;;;;7.90;4.07;;;1.70;99.90;;;;;;5051223;28;20040;-69
2022/03/18 00:15:29;;;;;;;10.27;4.32;;;1.70;99.90;;;;;;5051625;28;20041;-69
2022/03/18 00:17:55;;;;;;;12.70;4.30;;;1.70;99.90;;;;;;5051703;28;20064;-68
2022/03/18 00:20:22;;;;;;;11.98;4.55;;;1.60;99.90;;;;;;5050486;28;20064;-69
2022/03/18 00:22:49;;;;;;;14.88;4.50;;;1.60;99.90;;;;;;5042444;28;20510;-69
2022/03/18 00:25:17;;;;;;;10.15;3.88;;;1.60;99.90;;;;;;5069083;28;20106;-68
2022/03/18 00:27:44;;;;;;;13.02;5.40;;;1.50;99.90;;;;;;5038677;28;20063;-69
2022/03/18 00:30:11;;;;;;;10.13;4.40;;;1.50;99.90;;;;;;5051155;28;20033;-68
2022/03/18 00:32:38;;;;;;;11.80;4.40;;;1.50;99.90;;;;;;5060597;28;20037;-69
2022/03/18 00:35:04;;;;;;;10.75;4.15;;;1.60;99.90;;;;;;5046677;28;20037;-69
2022/03/18 00:37:30;;;;;;;12.05;4.20;;;1.60;99.90;;;;;;5049364;28;20110;-69
2022/03/18 00:39:55;;;;;;;9.77;3.88;;;1.50;99.90;;;;;;5054041;28;20040;-68
2022/03/18 00:42:21;;;;;;;10.80;3.88;;;1.50;99.90;;;;;;5056203;28;20047;-69
2022/03/18 00:44:47;;;;;;;13.32;4.03;;;1.40;99.90;;;;;;5061484;28;20090;-68
2022/03/18 00:52:40;;;;;;;11.02;4.28;;;1.40;99.90;;;;;;5056183;28;20551;-69
2022/03/18 00:55:07;;;;;;;7.43;3.60;;;1.40;99.90;;;;;;5047510;28;20120;-69
2022/03/18 00:57:32;;;;;;;13.07;4.38;;;1.50;99.90;;;;;;5049970;28;20106;-69
2022/03/18 00:59:58;;;;;;;8.35;4.20;;;1.50;99.90;;;;;;5065571;28;20041;-69
2022/03/18 01:02:23;;;;;;;13.00;5.13;;;1.50;99.90;;;;;;5061951;28;20036;-68
2022/03/18 01:04:50;;;;;;;12.27;5.05;;;1.50;99.90;;;;;;5066320;28;20035;-68
2022/03/18 01:07:17;;;;;;;12.85;5.70;;;1.40;99.90;;;;;;5066145;28;20149;-68
2022/03/18 01:09:42;;;;;;;17.25;6.40;;;1.40;99.90;;;;;;5041820;28;20048;-69
2022/03/18 01:12:08;;;;;;;12.73;5.80;;;1.50;99.90;;;;;;5054444;28;20043;-68
2022/03/18 01:14:34;;;;;;;13.27;6.30;;;1.50;99.90;;;;;;5049461;28;20125;-68
2022/03/18 01:17:00;;;;;;;16.35;6.80;;;1.50;99.90;;;;;;5044612;28;20552;-68
2022/03/18 01:19:25;;;;;;;16.05;6.43;;;1.50;99.90;;;;;;5057646;28;20140;-68
2022/03/18 01:21:51;;;;;;;12.50;5.85;;;1.50;99.90;;;;;;5052588;28;20046;-68
2022/03/18 01:24:17;;;;;;;14.68;5.90;;;1.50;99.90;;;;;;5064542;28;20028;-69
2022/03/18 01:26:43;;;;;;;16.77;6.43;;;1.40;99.90;;;;;;5050622;28;20123;-70
2022/03/18 01:29:08;;;;;;;13.65;7.15;;;1.30;99.90;;;;;;5033430;28;20124;-69
2022/03/18 01:31:34;;;;;;;13.65;6.10;;;1.30;99.90;;;;;;5064202;28;20115;-69
2022/03/18 01:34:00;;;;;;;19.23;6.25;;;1.20;99.90;;;;;;5037541;28;20094;-69
2022/03/18 01:36:26;;;;;;;11.82;4.75;;;1.20;99.90;;;;;;5050453;28;20033;-69
2022/03/18 01:38:51;;;;;;;8.65;4.93;;;1.30;99.90;;;;;;5039243;28;20063;-69
2022/03/18 01:41:17;;;;;;;15.15;5.43;;;1.30;99.90;;;;;;5060723;28;20495;-69
2022/03/18 01:43:47;;;;;;;11.48;4.63;;;1.20;99.90;;;;;;5058570;28;20131;-69
2022/03/18 01:46:15;;;;;;;8.90;4.95;;;1.10;99.90;;;;;;5051718;28;20068;-69
2022/03/18 01:48:41;;;;;;;9.15;4.78;;;1.10;99.90;;;;;;5034211;28;20416;-69
2022/03/18 01:51:08;;;;;;;9.82;4.15;;;1.20;99.90;;;;;;5056694;28;20039;-69
2022/03/18 01:53:35;;;;;;;14.27;5.18;;;1.20;99.90;;;;;;5065551;28;20128;-68
2022/03/18 01:56:01;;;;;;;11.15;5.03;;;1.10;99.90;;;;;;5052555;28;20492;-69
2022/03/18 01:58:27;;;;;;;8.48;5.03;;;1.00;99.90;;;;;;5049851;28;20159;-68
2022/03/18 02:00:52;;;;;;;9.77;4.45;;;1.00;99.90;;;;;;5049668;28;20492;-68
2022/03/18 02:03:18;;;;;;;10.50;4.90;;;0.90;99.90;;;;;;5056651;28;20090;-68
2022/03/18 02:05:44;;;;;;;9.10;5.00;;;0.80;99.90;;;;;;5034708;28;20036;-68
2022/03/18 02:08:10;;;;;;;14.48;5.70;;;0.80;99.90;;;;;;5052173;28;20079;-68
2022/03/18 02:10:37;;;;;;;12.48;6.05;;;0.90;99.90;;;;;;5040559;28;20429;-67
2022/03/18 02:13:03;;;;;;;18.38;5.78;;;0.90;99.90;;;;;;5051639;28;20036;-68
2022/03/18 02:15:28;;;;;;;13.45;6.47;;;1.00;99.90;;;;;;5055716;28;20032;-68
2022/03/18 02:17:54;;;;;;;16.77;6.75;;;1.10;99.90;;;;;;5062262;28;20040;-68
2022/03/18 02:20:20;;;;;;;17.45;7.43;;;1.30;99.90;;;;;;5050014;28;20076;-66
2022/03/18 02:22:46;;;;;;;16.02;7.55;;;1.30;99.90;;;;;;5045689;28;20365;-67
2022/03/18 02:25:12;;;;;;;18.83;9.13;;;1.50;99.90;;;;;;5047862;28;20055;-68
2022/03/18 02:27:39;;;;;;;22.60;9.20;;;1.70;99.90;;;;;;5053470;28;20417;-68
2022/03/18 02:30:06;;;;;;;19.23;8.75;;;1.80;99.90;;;;;;5059514;28;20147;-67
2022/03/18 02:32:33;;;;;;;17.92;9.20;;;1.90;99.90;;;;;;5048667;28;20044;-66
2022/03/18 02:35:01;;;;;;;18.20;8.45;;;2.10;99.90;;;;;;5047809;28;20048;-68
2022/03/18 02:37:26;;;;;;;20.00;9.02;;;2.10;99.90;;;;;;5055318;28;20049;-67
2022/03/18 02:39:52;;;;;;;16.38;7.78;;;2.30;99.90;;;;;;5049994;28;20062;-67
2022/03/18 02:42:18;;;;;;;18.60;8.80;;;2.30;99.90;;;;;;5054153;28;20473;-68
2022/03/18 02:44:44;;;;;;;18.45;8.13;;;2.40;99.90;;;;;;5047562;28;20040;-67
2022/03/18 02:47:09;;;;;;;18.08;8.48;;;2.50;99.90;;;;;;5048747;28;20041;-67
2022/03/18 02:49:35;;;;;;;15.95;8.57;;;2.70;99.90;;;;;;5048370;28;20041;-67
2022/03/18 02:52:01;;;;;;;17.08;7.93;;;2.80;99.90;;;;;;5044086;28;20683;-67
2022/03/18 02:54:26;;;;;;;17.02;7.75;;;2.90;99.90;;;;;;5049054;28;20190;-68
2022/03/18 02:56:52;;;;;;;18.58;8.32;;;2.90;99.90;;;;;;5058558;28;20159;-67
2022/03/18 02:59:18;;;;;;;22.98;8.73;;;3.00;99.90;;;;;;5049057;28;20044;-67
2022/03/18 03:01:44;;;;;;;18.77;7.90;;;3.00;99.90;;;;;;5064910;28;20055;-68
2022/03/18 03:04:11;;;;;;;20.80;9.15;;;3.00;99.90;;;;;;5034875;28;20097;-67
2022/03/18 03:09:21;;;;;;;20.33;10.10;;;3.10;99.90;;;;;;5055181;28;20435;-68
2022/03/18 03:11:46;;;;;;;25.00;10.02;;;3.20;99.90;;;;;;5067818;28;20116;-67
2022/03/18 03:14:13;;;;;;;23.05;8.50;;;3.20;99.90;;;;;;5056081;28;20135;-67
2022/03/18 03:16:38;;;;;;;16.98;8.70;;;3.20;99.90;;;;;;5048430;28;20063;-66
2022/03/18 03:19:04;;;;;;;25.23;9.55;;;3.30;99.90;;;;;;5029862;28;20123;-67
2022/03/18 03:21:30;;;;;;;24.52;9.10;;;3.30;99.90;;;;;;5058138;28;20045;-68
2022/03/18 03:23:56;;;;;;;20.63;8.38;;;3.30;99.90;;;;;;5052046;28;20064;-68
2022/03/18 03:26:22;;;;;;;22.98;8.68;;;3.30;99.90;;;;;;5059270;28;20052;-67
2022/03/18 03:28:48;;;;;;;16.63;8.18;;;3.30;99.90;;;;;;5048377;28;20037;-67
2022/03/18 03:31:14;;;;;;;22.88;8.48;;;3.30;99.90;;;;;;5031926;28;20491;-67
2022/03/18 03:33:39;;;;;;;17.95;7.53;;;3.30;99.90;;;;;;5054750;28;20115;-67
2022/03/18 03:36:05;;;;;;;19.92;7.80;;;3.30;99.90;;;;;;5048710;28;20338;-67
2022/03/18 03:38:30;;;;;;;17.40;7.72;;;3.40;99.90;;;;;;5047601;28;20045;-67
2022/03/18 03:40:56;;;;;;;18.80;8.10;;;3.30;99.90;;;;;;5036857;28;20072;-69
2022/03/18 03:43:22;;;;;;;18.63;6.78;;;3.30;99.90;;;;;;5056633;28;20037;-67
2022/03/18 03:45:47;;;;;;;16.67;6.95;;;3.30;99.90;;;;;;5061184;28;20136;-66
2022/03/18 03:48:13;;;;;;;15.68;6.13;;;3.20;99.90;;;;;;5044305;28;20075;-68
2022/03/18 03:50:42;;;;;;;15.98;6.65;;;3.20;99.90;;;;;;5040978;28;20032;-68
2022/03/18 03:53:09;;;;;;;13.30;5.90;;;3.20;99.90;;;;;;5050850;28;20033;-68
2022/03/18 03:55:38;;;;;;;13.77;6.32;;;3.10;99.90;;;;;;5056699;28;20037;-68
2022/03/18 03:58:06;;;;;;;12.90;5.55;;;3.00;99.90;;;;;;5057216;28;20052;-68
2022/03/18 04:00:31;;;;;;;12.38;5.47;;;3.00;99.90;;;;;;5042816;28;20037;-68
2022/03/18 04:02:57;;;;;;;11.55;5.43;;;2.90;99.90;;;;;;5067411;28;20095;-67
2022/03/18 04:05:22;;;;;;;10.73;5.57;;;2.80;99.90;;;;;;5059868;28;20091;-68
2022/03/18 04:07:48;;;;;;;9.57;5.68;;;2.80;99.90;;;;;;5045765;28;20040;-68
2022/03/18 04:10:14;;;;;;;14.13;5.35;;;2.80;99.90;;;;;;5040476;28;20045;-68
2022/03/18 04:12:40;;;;;;;11.18;5.75;;;2.70;99.90;;;;;;5051301;28;20043;-68
2022/03/18 04:15:10;;;;;;;14.85;5.10;;;2.60;99.90;;;;;;5057489;28;20462;-68
2022/03/18 04:17:40;;;;;;;10.82;5.10;;;2.50;99.90;;;;;;5043306;28;20051;-68
2022/03/18 04:20:09;;;;;;;10.82;4.95;;;2.40;99.90;;;;;;5066538;28;20045;-68
2022/03/18 04:22:34;;;;;;;10.70;4.70;;;2.40;99.90;;;;;;5049299;28;20033;-68
2022/03/18 04:25:00;;;;;;;13.07;6.00;;;2.30;99.90;;;;;;5055489;28;20094;-68
2022/03/18 04:27:26;;;;;;;8.45;4.95;;;2.20;99.90;;;;;;5052537;28;20037;-69
2022/03/18 04:29:53;;;;;;;9.95;5.15;;;2.20;99.90;;;;;;5061239;28;20093;-69
2022/03/18 04:32:18;;;;;;;8.52;5.28;;;2.10;99.90;;;;;;5056027;28;20073;-69
2022/03/18 04:34:44;;;;;;;10.52;5.60;;;2.00;99.90;;;;;;5052975;28;20064;-68
2022/03/18 04:37:10;;;;;;;11.75;5.72;;;1.90;99.90;;;;;;5059413;28;20147;-69
2022/03/18 04:39:35;;;;;;;14.95;5.47;;;1.80;99.90;;;;;;5069123;28;20172;-69
2022/03/18 04:42:01;;;;;;;12.45;5.25;;;1.70;99.90;;;;;;5068945;28;20044;-68
2022/03/18 04:44:27;;;;;;;14.50;5.85;;;1.60;99.90;;;;;;5052844;28;20045;-69
2022/03/18 04:46:52;;;;;;;12.88;5.25;;;1.50;99.90;;;;;;5060392;28;20063;-68
2022/03/18 04:49:18;;;;;;;10.25;4.75;;;1.40;99.90;;;;;;5069648;28;20045;-68
2022/03/18 04:51:43;;;;;;;11.82;5.32;;;1.30;99.90;;;;;;5050126;28;20154;-68
2022/03/18 04:54:09;;;;;;;11.07;5.57;;;1.20;99.90;;;;;;5059445;28;20127;-68
2022/03/18 04:59:19;;;;;;;11.57;5.35;;;1.00;99.90;;;;;;5051220;28;20076;-68
2022/03/18 05:01:46;;;;;;;11.38;5.75;;;1.00;99.90;;;;;;5053421;28;20086;-68
2022/03/18 05:04:11;;;;;;;10.57;4.85;;;1.00;99.90;;;;;;5053851;28;20037;-67
2022/03/18 05:06:37;;;;;;;9.15;5.85;;;1.00;99.90;;;;;;5055801;28;20048;-67
2022/03/18 05:09:03;;;;;;;9.25;5.30;;;1.00;99.90;;;;;;5052230;28;20427;-67
2022/03/18 05:11:29;;;;;;;10.55;5.65;;;1.00;99.90;;;;;;5049363;28;20041;-68
2022/03/18 05:13:55;;;;;;;11.73;6.10;;;1.00;99.90;;;;;;5050142;28;20036;-68
2022/03/18 05:16:20;;;;;;;11.75;6.13;;;1.00;99.90;;;;;;5062489;28;20109;-68
2022/03/18 05:18:46;;;;;;;12.05;6.00;;;1.10;99.90;;;;;;5066905;28;20040;-68
2022/03/18 05:21:12;;;;;;;10.63;5.93;;;1.10;99.90;;;;;;5041363;28;20060;-69
2022/03/18 05:23:37;;;;;;;12.90;6.70;;;1.10;99.90;;;;;;5040352;28;20047;-68
2022/03/18 05:26:03;;;;;;;18.27;6.65;;;1.20;99.90;;;;;;5035471;28;20094;-68
2022/03/18 05:28:30;;;;;;;12.98;7.00;;;1.30;99.90;;;;;;5049921;28;20516;-68
2022/03/18 05:30:57;;;;;;;14.88;6.97;;;1.30;99.90;;;;;;5044226;28;20378;-68
2022/03/18 05:33:24;;;;;;;12.05;6.03;;;1.30;99.90;;;;;;5062820;28;20056;-68
2022/03/18 05:35:49;;;;;;;14.10;5.68;;;1.30;99.90;;;;;;5049904;28;20056;-68
2022/03/18 05:38:15;;;;;;;10.60;5.43;;;1.20;99.90;;;;;;5047582;28;20366;-68
2022/03/18 05:40:41;;;;;;;13.45;5.70;;;1.10;99.90;;;;;;5047347;28;20044;-69
2022/03/18 05:43:07;;;;;;;12.82;5.40;;;1.00;99.90;;;;;;5050936;28;20484;-68
2022/03/18 05:45:33;;;;;;;8.88;5.25;;;1.00;99.90;;;;;;5062211;28;20527;-69
2022/03/18 05:47:59;;;;;;;13.77;5.68;;;0.90;99.90;;;;;;5038803;28;20210;-68
2022/03/18 05:50:25;;;;;;;11.35;5.00;;;0.80;99.90;;;;;;5063240;28;20476;-68
2022/03/18 05:52:50;;;;;;;8.85;5.60;;;0.80;99.90;;;;;;5046265;28;20041;-68
2022/03/18 05:55:16;;;;;;;15.45;5.68;;;0.70;99.90;;;;;;5054365;28;20039;-69
2022/03/18 05:57:42;;;;;;;14.05;5.50;;;0.70;99.90;;;;;;5044665;28;20110;-68
2022/03/18 06:00:09;;;;;;;11.98;6.10;;;0.60;99.90;;;;;;5062619;28;20045;-68
2022/03/18 06:02:35;;;;;;;13.23;4.97;;;0.60;99.90;;;;;;5048725;28;20047;-68
2022/03/18 06:05:01;;;;;;;10.80;5.55;;;0.60;99.90;;;;;;5050721;28;20036;-68
2022/03/18 06:07:27;;;;;;;10.25;6.18;;;0.60;99.90;;;;;;5050650;28;20106;-68
2022/03/18 06:12:37;;;;;;;13.18;5.45;;;0.70;99.90;;;;;;5058789;28;20048;-68
2022/03/18 06:15:03;;;;;;;11.18;5.38;;;0.80;99.90;;;;;;5044106;28;20043;-68
2022/03/18 06:17:29;;;;;;;12.63;5.50;;;0.80;99.90;;;;;;5053925;28;20037;-68
2022/03/18 06:19:54;;;;;;;8.85;5.20;;;0.80;99.90;;;;;;5065093;28;20064;-68
2022/03/18 06:22:20;;;;;;;10.93;5.95;;;0.80;99.90;;;;;;5063459;28;20554;-68
2022/03/18 06:24:45;;;;;;;11.10;5.85;;;0.90;99.90;;;;;;5043775;28;20104;-68
2022/03/18 06:27:11;;;;;;;13.85;6.00;;;0.90;99.90;;;;;;5049252;28;20102;-68
2022/03/18 06:29:37;;;;;;;15.93;6.38;;;0.90;99.90;;;;;;5049168;28;20110;-67
2022/03/18 06:32:03;;;;;;;9.98;5.45;;;1.10;99.90;;;;;;5058330;28;20040;-68
2022/03/18 06:34:29;;;;;;;16.70;6.85;;;1.20;99.90;;;;;;5056129;28;20045;-68
2022/03/18 06:36:57;;;;;;;11.13;6.75;;;1.40;99.90;;;;;;5065643;28;20059;-68
2022/03/18 06:39:24;;;;;;;15.77;7.22;;;1.60;99.90;;;;;;5069112;28;20037;-69
2022/03/18 06:41:51;;;;;;;13.52;6.47;;;1.80;99.90;;;;;;5052609;28;20072;-68
2022/03/18 06:44:17;;;;;;;12.73;6.47;;;2.00;99.90;;;;;;5050321;28;20081;-68
2022/03/18 06:46:42;;;;;;;13.20;6.70;;;2.20;99.90;;;;;;5050136;28;20072;-69
2022/03/18 06:49:08;;;;;;;14.73;6.82;;;2.50;99.90;;;;;;5060626;28;20531;-69
2022/03/18 06:51:34;;;;;;;10.10;5.55;;;2.60;99.90;;;;;;5050489;28;20059;-69
2022/03/18 06:54:00;;;;;;;10.35;5.95;;;2.90;99.90;;;;;;5058378;28;20760;-69
2022/03/18 06:56:27;;;;;;;9.90;5.82;;;3.10;99.90;;;;;;5052000;28;20125;-69
2022/03/18 06:58:53;;;;;;;13.23;6.53;;;3.40;99.90;;;;;;5048074;28;20469;-69
2022/03/18 07:01:21;;;;;;;11.75;6.80;;;3.70;99.90;;;;;;5051407;28;20113;-69
2022/03/18 07:03:49;;;;;;;15.48;6.25;;;3.90;99.90;;;;;;5066225;28;20040;-69
2022/03/18 07:06:15;;;;;;;15.00;7.45;;;4.20;99.90;;;;;;5051298;28;20044;-69
2022/03/18 07:08:41;;;;;;;11.43;6.60;;;4.40;99.90;;;;;;5061164;28;20044;-69
2022/03/18 07:11:07;;;;;;;14.68;7.30;;;4.70;99.90;;;;;;5065187;28;20077;-70
2022/03/18 07:13:33;;;;;;;11.90;7.20;;;5.10;99.90;;;;;;5051439;28;20069;-70
2022/03/18 07:17:54;;;;;;;14.63;8.43;;;5.30;99.90;;;;;;5051027;28;20048;-69
2022/03/18 07:18:45;;;;;;;15.45;7.55;;;5.70;99.90;;;;;;5053473;28;20041;-69
2022/03/18 07:21:11;;;;;;;13.18;7.20;;;6.00;99.90;;;;;;5051242;28;20064;-69
2022/03/18 07:23:37;;;;;;;13.35;7.65;;;6.30;99.90;;;;;;5031664;28;20119;-69
2022/03/18 07:26:02;;;;;;;14.38;7.65;;;6.60;99.90;;;;;;5055879;28;20748;-69
2022/03/18 07:28:28;;;;;;;15.63;8.05;;;6.90;99.90;;;;;;5050786;28;20052;-69
2022/03/18 07:30:54;;;;;;;13.07;7.82;;;7.20;99.90;;;;;;5049345;28;20045;-69
2022/03/18 07:33:19;;;;;;;14.10;8.07;;;7.50;99.90;;;;;;5047993;28;20124;-69
2022/03/18 07:35:45;;;;;;;12.68;8.02;;;7.80;99.90;;;;;;5055601;28;20036;-69
2022/03/18 07:38:10;;;;;;;18.05;10.00;;;8.00;99.90;;;;;;5058104;28;20039;-69
2022/03/18 07:40:37;;;;;;;16.13;9.90;;;8.20;99.90;;;;;;5048097;28;20044;-69
2022/03/18 07:43:02;;;;;;;17.85;10.50;;;8.40;99.90;;;;;;5053053;28;20045;-69
2022/03/18 07:45:30;;;;;;;14.70;10.02;;;8.60;99.90;;;;;;5050888;28;20075;-69
2022/03/18 07:47:58;;;;;;;16.13;11.20;;;8.70;99.90;;;;;;5055161;28;20083;-69
2022/03/18 07:50:26;;;;;;;17.05;10.63;;;9.00;99.90;;;;;;5052150;28;20067;-69
2022/03/18 07:52:58;;;;;;;19.73;10.98;;;9.40;99.90;;;;;;5044907;28;20091;-69
2022/03/18 07:55:25;;;;;;;21.38;11.02;;;9.60;99.90;;;;;;5033929;28;20071;-69
2022/03/18 07:57:51;;;;;;;15.00;10.27;;;9.80;99.90;;;;;;5046343;28;20047;-69
2022/03/18 08:00:18;;;;;;;18.08;12.02;;;10.00;99.90;;;;;;5063270;28;20117;-69
2022/03/18 08:02:45;;;;;;;16.63;11.23;;;10.30;99.90;;;;;;5051534;28;20063;-69
2022/03/18 08:05:11;;;;;;;20.83;10.93;;;10.70;99.90;;;;;;5050934;28;20036;-69
2022/03/18 08:07:37;;;;;;;16.52;10.68;;;10.70;99.90;;;;;;5055807;28;20723;-69
2022/03/18 08:10:04;;;;;;;17.67;11.30;;;10.70;99.90;;;;;;5064819;28;20044;-68
2022/03/18 08:12:31;;;;;;;17.63;11.63;;;10.60;98.40;;;;;;5058393;28;20041;-69
2022/03/18 08:15:02;;;;;;;18.25;11.77;;;10.50;98.40;;;;;;5057610;28;20043;-68
2022/03/18 08:17:28;;;;;;;18.70;11.93;;;10.30;95.80;;;;;;5043259;28;20086;-68
2022/03/18 08:19:54;;;;;;;17.27;11.63;;;10.20;96.40;;;;;;5059152;28;20390;-69
2022/03/18 08:22:21;;;;;;;22.88;11.95;;;10.10;95.10;;;;;;5042228;28;20116;-70
2022/03/18 08:24:50;;;;;;;21.63;11.55;;;10.10;94.50;;;;;;5057208;28;20051;-69
2022/03/18 08:27:16;;;;;;;19.55;12.80;;;10.00;94.00;;;;;;5054942;28;20198;-69
2022/03/18 08:29:42;;;;;;;21.83;11.18;;;10.00;93.40;;;;;;5054534;28;20044;-68
2022/03/18 08:32:12;;;;;;;22.05;11.43;;;9.90;93.10;;;;;;5058557;28;20040;-69
2022/03/18 08:34:38;;;;;;;20.70;11.77;;;10.00;92.30;;;;;;5058936;28;20545;-70
2022/03/18 08:37:05;;;;;;;23.88;12.05;;;10.00;92.60;;;;;;5065046;28;20049;-69
2022/03/18 08:39:32;;;;;;;21.65;12.55;;;10.10;92.50;;;;;;5046721;28;20033;-69
2022/03/18 08:41:58;;;;;;;20.48;11.68;;;10.00;92.40;;;;;;5060823;28;20040;-69
2022/03/18 08:44:23;;;;;;;19.67;11.77;;;10.10;92.30;;;;;;5039741;28;20041;-69
2022/03/18 08:46:49;;;;;;;18.92;11.32;;;10.00;92.10;;;;;;5057235;28;20047;-68
2022/03/18 08:49:15;;;;;;;20.88;11.27;;;10.10;91.80;;;;;;5047556;28;20048;-69
2022/03/18 08:51:41;;;;;;;19.33;11.18;;;10.20;91.70;;;;;;5056025;28;20045;-69
2022/03/18 08:54:07;;;;;;;17.40;10.95;;;10.50;91.30;;;;;;5061180;28;20040;-70
2022/03/18 08:56:33;;;;;;;23.95;11.43;;;10.40;91.40;;;;;;5055158;28;20523;-69
2022/03/18 08:59:01;;;;;;;17.67;10.98;;;10.60;91.30;;;;;;5051102;28;20079;-70
2022/03/18 09:01:27;;;;;;;20.52;11.98;;;10.80;91.10;;;;;;5053783;28;20863;-69
2022/03/18 09:03:52;;;;;;;18.67;11.02;;;10.90;90.90;;;;;;5053052;28;20127;-69
2022/03/18 09:06:18;;;;;;;19.15;10.43;;;11.10;90.70;;;;;;5037309;28;20424;-69
2022/03/18 09:08:44;;;;;;;17.42;10.23;;;11.20;90.50;;;;;;5049417;28;20048;-69
2022/03/18 09:11:10;;;;;;;20.98;11.77;;;11.30;90.50;;;;;;5069822;28;20051;-69
2022/03/18 09:13:36;;;;;;;21.13;11.43;;;11.20;90.60;;;;;;5058497;28;20603;-70
2022/03/18 09:16:04;;;;;;;20.60;11.40;;;11.40;90.80;;;;;;5059025;28;20091;-70
2022/03/18 09:18:30;;;;;;;20.70;10.75;;;11.60;90.60;;;;;;5063445;28;20040;-69
2022/03/18 09:20:55;;;;;;;22.02;11.55;;;11.80;90.60;;;;;;5061798;28;20041;-70
2022/03/18 09:23:21;;;;;;;18.88;11.48;;;11.70;90.40;;;;;;5053116;28;20131;-70
2022/03/18 09:25:47;;;;;;;18.65;11.00;;;11.70;90.80;;;;;;5056695;28;20070;-70
2022/03/18 09:28:12;;;;;;;21.98;11.10;;;11.80;90.80;;;;;;5055357;28;20040;-69
2022/03/18 09:30:39;;;;;;;21.67;11.57;;;11.70;91.00;;;;;;5066764;28;20041;-68
2022/03/18 09:33:04;;;;;;;18.98;10.98;;;11.70;90.80;;;;;;5048930;28;20037;-69
2022/03/18 09:35:30;;;;;;;21.60;10.90;;;11.70;91.10;;;;;;5057081;28;20051;-69
2022/03/18 09:37:56;;;;;;;21.13;11.07;;;11.80;90.90;;;;;;5051315;28;20040;-69
2022/03/18 09:40:21;;;;;;;22.83;12.07;;;11.90;90.30;;;;;;5034041;28;20048;-69
2022/03/18 09:43:19;;;;;;;22.05;11.80;;;11.80;90.20;;;;;;5045477;28;20033;-69
2022/03/18 09:45:46;;;;;;;21.52;11.27;;;11.70;86.80;;;;;;5024161;28;20041;-69
2022/03/18 09:48:11;;;;;;;18.65;10.40;;;11.70;89.80;;;;;;5067678;28;20358;-69
2022/03/18 09:50:42;;;;;;;19.35;10.23;;;11.80;90.00;;;;;;5034048;28;20199;-70
2022/03/18 09:53:09;;;;;;;22.45;10.20;;;12.00;89.30;;;;;;5062413;28;20048;-70
2022/03/18 09:55:37;;;;;;;19.77;9.60;;;11.90;88.80;;;;;;5059390;28;20037;-69
2022/03/18 09:58:03;;;;;;;18.95;10.70;;;12.20;87.00;;;;;;5063326;28;20053;-70
2022/03/18 10:00:29;;;;;;;19.38;10.93;;;12.10;87.60;;;;;;5057307;28;20040;-69
2022/03/18 10:03:12;;;;;;;16.77;10.48;;;12.10;87.50;;;;;;5067519;28;20695;-69
2022/03/18 10:05:47;;;;;;;27.35;11.02;;;12.10;84.90;;;;;;5053684;28;20078;-68
2022/03/18 10:08:12;;;;;;;24.00;11.18;;;12.00;85.00;;;;;;5062917;28;20341;-68
2022/03/18 10:10:48;;;;;;;20.35;10.77;;;12.10;86.70;;;;;;5067541;28;20040;-68
2022/03/18 10:13:15;;;;;;;22.65;11.05;;;12.10;84.60;;;;;;5068908;28;20456;-68
2022/03/18 10:15:41;;;;;;;25.23;10.95;;;12.20;85.70;;;;;;5062279;28;20036;-68
2022/03/18 10:18:12;;;;;;;20.95;11.23;;;12.10;86.00;;;;;;5047701;28;20041;-68
2022/03/18 10:20:39;;;;;;;;;;;12.20;86.20;;;;;;5051342;28;20053;-68
2022/03/18 10:23:16;;;;;;;21.70;11.02;;;12.20;84.10;;;;;;5044322;28;19916;-67
2022/03/18 10:25:52;;;;;;;22.08;10.23;;;12.30;85.90;;;;;;5054490;28;20048;-67
2022/03/18 10:28:41;;;;;;;23.80;10.57;;;12.30;85.40;;;;;;5068358;28;20040;-68
2022/03/18 10:31:12;;;;;;;23.33;10.80;;;12.30;82.60;;;;;;5057020;28;20071;-68
2022/03/18 10:37:04;;;;;;;19.48;10.43;;;12.30;85.60;;;;;;5048128;28;20037;-69
2022/03/18 10:39:28;;;;;;;18.02;9.57;;;12.50;84.30;;;;;;5049915;28;20508;-67
2022/03/18 10:41:55;;;;;;;18.98;9.43;;;12.50;82.20;;;;;;5060506;28;20345;-67
2022/03/18 10:44:20;;;;;;;16.70;9.30;;;12.50;83.30;;;;;;5049016;28;20421;-67
2022/03/18 10:46:48;;;;;;;17.35;8.50;;;12.70;83.00;;;;;;5064720;28;20040;-67
2022/03/18 10:49:13;;;;;;;19.85;9.43;;;12.90;82.10;;;;;;5048899;28;21596;-67
2022/03/18 10:51:39;;;;;;;23.23;10.35;;;12.80;82.70;;;;;;5055414;28;20052;-67
2022/03/18 10:54:05;;;;;;;19.30;9.75;;;12.90;82.70;;;;;;5045904;28;20037;-65
2022/03/18 10:56:58;;;;;;;19.13;9.68;;;12.90;82.20;;;;;;5063315;28;20201;-67
2022/03/18 10:59:24;;;;;;;18.83;9.63;;;12.90;80.00;;;;;;5056750;28;20123;-66
2022/03/18 11:01:51;;;;;;;14.95;9.13;;;12.80;81.90;;;;;;5065712;28;20120;-68
2022/03/18 11:04:17;;;;;;;19.98;10.25;;;12.90;82.00;;;;;;5049467;28;20547;-67
2022/03/18 11:07:29;;;;;;;16.85;9.30;;;12.80;82.10;;;;;;5038187;28;20044;-68
2022/03/18 11:11:06;;;;;;;19.55;9.70;;;12.90;81.80;;;;;;5050534;28;20482;-67
2022/03/18 11:12:20;;;;;;;19.88;9.77;;;13.00;82.50;;;;;;5049768;28;20064;-66
2022/03/18 11:14:47;;;;;;;16.88;9.82;;;12.90;81.60;;;;;;5055715;28;20060;-69
2022/03/18 11:17:13;;;;;;;18.83;8.60;;;13.00;82.00;;;;;;5031174;28;20395;-68
2022/03/18 11:19:39;;;;;;;16.58;8.50;;;13.40;81.70;;;;;;5057044;28;20032;-69
2022/03/18 11:22:05;;;;;;;17.83;8.68;;;13.60;81.20;;;;;;5048727;28;20053;-68
2022/03/18 11:24:32;;;;;;;19.42;9.63;;;13.50;80.90;;;;;;5038717;28;20568;-68
2022/03/18 11:26:57;;;;;;;18.63;9.13;;;13.50;80.50;;;;;;5047490;28;20123;-68
2022/03/18 11:29:27;;;;;;;16.40;8.48;;;13.60;81.00;;;;;;5060139;28;20183;-67
2022/03/18 11:32:12;;;;;;;13.88;7.80;;;13.70;79.20;;;;;;5072009;28;20502;-69
2022/03/18 11:34:56;;;;;;;19.90;8.60;;;13.70;78.40;;;;;;5059071;28;20048;-67
2022/03/18 11:37:25;;;;;;;17.83;9.07;;;13.80;76.40;;;;;;5057416;28;20041;-68
2022/03/18 11:39:50;;;;;;;16.05;8.70;;;13.70;79.30;;;;;;5053087;28;20136;-67
2022/03/18 11:42:22;;;;;;;14.90;8.50;;;13.70;79.30;;;;;;5039916;28;20123;-68
2022/03/18 11:44:58;;;;;;;19.95;8.23;;;13.80;78.30;;;;;;5043357;28;20041;-66
2022/03/18 11:47:28;;;;;;;21.42;9.60;;;13.90;76.30;;;;;;5060121;28;20041;-68
2022/03/18 11:49:54;;;;;;;19.23;9.13;;;13.80;77.70;;;;;;5071339;28;20043;-67
2022/03/18 11:52:20;;;;;;;20.40;9.70;;;13.80;78.30;;;;;;5066789;28;20422;-67
2022/03/18 11:55:10;;;;;;;22.25;9.52;;;13.90;78.50;;;;;;5052139;28;20040;-67
2022/03/18 11:57:45;;;;;;;17.10;9.32;;;13.90;75.30;;;;;;5059929;28;20238;-68
2022/03/18 12:00:31;;;;;;;13.85;8.15;;;13.90;77.00;;;;;;5054651;28;20465;-69
2022/03/18 12:02:56;;;;;;;14.93;7.90;;;14.10;76.60;;;;;;5061037;28;20040;-69
2022/03/18 12:05:29;;;;;;;17.98;8.40;;;14.20;77.20;;;;;;5061947;28;20055;-67
2022/03/18 12:07:56;;;;;;;18.30;8.05;;;14.40;75.50;;;;;;5052595;28;20037;-69
2022/03/18 12:10:39;;;;;;;13.10;6.82;;;14.60;76.30;;;;;;5053074;28;20075;-68
2022/03/18 12:13:05;;;;;;;16.27;6.70;;;14.50;72.40;;;;;;5068493;28;20538;-67
2022/03/18 12:15:36;;;;;;;13.95;7.22;;;14.40;74.60;;;;;;5044616;28;20406;-66
2022/03/18 12:18:03;;;;;;;14.93;7.25;;;14.40;74.10;;;;;;5052686;28;20041;-67
2022/03/18 12:20:37;;;;;;;10.93;5.18;;;14.40;73.90;;;;;;5040856;28;20102;-68
2022/03/18 12:23:05;;;;;;;11.70;4.53;;;14.40;70.60;;;;;;5050495;28;20503;-68
2022/03/18 12:25:31;;;;;;;13.45;5.28;;;14.60;72.00;;;;;;5059610;28;20045;-68
2022/03/18 12:27:57;;;;;;;12.70;6.13;;;14.80;71.90;;;;;;5052495;28;20041;-68
2022/03/18 12:30:27;;;;;;;12.50;6.05;;;14.80;72.00;;;;;;5037039;28;20044;-67
2022/03/18 12:32:58;;;;;;;15.63;6.53;;;14.80;70.40;;;;;;5060054;28;20385;-68
2022/03/18 12:35:26;;;;;;;12.50;5.97;;;14.80;70.70;;;;;;5052612;28;20051;-69
2022/03/18 12:38:13;;;;;;;14.90;5.72;;;14.90;70.00;;;;;;5044594;28;20045;-69
2022/03/18 12:40:41;;;;;;;16.63;5.50;;;15.20;69.30;;;;;;5045848;28;20072;-68
2022/03/18 12:43:07;;;;;;;14.15;6.18;;;15.40;69.80;;;;;;5042231;28;20116;-68
2022/03/18 12:45:37;;;;;;;13.93;6.40;;;15.60;69.60;;;;;;5051793;28;20071;-68
2022/03/18 12:48:07;;;;;;;13.30;6.20;;;15.70;69.00;;;;;;5057869;28;20040;-68
2022/03/18 12:50:35;;;;;;;11.60;6.05;;;15.80;68.60;;;;;;5038408;28;20731;-69
2022/03/18 12:53:21;;;;;;;11.88;5.65;;;15.70;68.50;;;;;;5037419;28;20157;-68
2022/03/18 12:55:51;;;;;;;12.07;5.95;;;15.60;68.00;;;;;;5049686;28;20074;-67
2022/03/18 12:58:18;;;;;;;14.02;5.90;;;15.80;66.70;;;;;;5035967;28;20055;-68